sensor_id;sensor_type;location;lat;lon;timestamp;pressure;altitude;pressure_sealevel;temperature;humidity
75447;BME280;64024;55.820;37.574;2022-12-18T00:01:35;98313.75;;;11.24;40.50
75447;BME280;64024;55.820;37.574;2022-12-18T00:04:02;98306.81;;;11.23;40.65
75447;BME280;64024;55.820;37.574;2022-12-18T00:06:32;98287.41;;;11.22;40.63
75447;BME280;64024;55.820;37.574;2022-12-18T00:08:59;98290.31;;;11.20;40.24
75447;BME280;64024;55.820;37.574;2022-12-18T00:11:28;98304.41;;;11.21;40.24
75447;BME280;64024;55.820;37.574;2022-12-18T00:13:56;98296.78;;;11.25;40.49
75447;BME280;64024;55.820;37.574;2022-12-18T00:16:23;98292.09;;;11.32;40.54
75447;BME280;64024;55.820;37.574;2022-12-18T00:18:51;98295.69;;;11.37;40.70
75447;BME280;64024;55.820;37.574;2022-12-18T00:21:18;98293.94;;;11.43;40.61
75447;BME280;64024;55.820;37.574;2022-12-18T00:23:45;98271.94;;;11.48;40.57
75447;BME280;64024;55.820;37.574;2022-12-18T00:26:13;98270.41;;;11.52;40.46
75447;BME280;64024;55.820;37.574;2022-12-18T00:28:40;98277.13;;;11.54;40.80
75447;BME280;64024;55.820;37.574;2022-12-18T00:31:14;98259.06;;;11.56;40.80
75447;BME280;64024;55.820;37.574;2022-12-18T00:33:40;98259.41;;;11.60;40.77
75447;BME280;64024;55.820;37.574;2022-12-18T00:36:16;98257.53;;;11.60;41.18
75447;BME280;64024;55.820;37.574;2022-12-18T00:38:43;98246.09;;;11.60;40.93
75447;BME280;64024;55.820;37.574;2022-12-18T00:41:10;98241.00;;;11.58;41.19
75447;BME280;64024;55.820;37.574;2022-12-18T00:43:37;98245.75;;;11.56;40.68
75447;BME280;64024;55.820;37.574;2022-12-18T00:46:03;98243.09;;;11.56;40.90
75447;BME280;64024;55.820;37.574;2022-12-18T00:48:28;98235.34;;;11.55;40.93
75447;BME280;64024;55.820;37.574;2022-12-18T00:50:54;98250.75;;;11.53;41.07
75447;BME280;64024;55.820;37.574;2022-12-18T00:53:19;98249.13;;;11.52;41.02
75447;BME280;64024;55.820;37.574;2022-12-18T00:55:45;98236.06;;;11.50;40.98
75447;BME280;64024;55.820;37.574;2022-12-18T00:58:11;98223.81;;;11.49;41.36
75447;BME280;64024;55.820;37.574;2022-12-18T01:00:37;98225.09;;;11.47;41.07
75447;BME280;64024;55.820;37.574;2022-12-18T01:03:04;98251.13;;;11.44;41.46
75447;BME280;64024;55.820;37.574;2022-12-18T01:05:30;98233.31;;;11.45;41.67
75447;BME280;64024;55.820;37.574;2022-12-18T01:07:56;98239.44;;;11.45;41.68
75447;BME280;64024;55.820;37.574;2022-12-18T01:10:23;98226.16;;;11.45;41.54
75447;BME280;64024;55.820;37.574;2022-12-18T01:12:49;98202.22;;;11.45;41.80
75447;BME280;64024;55.820;37.574;2022-12-18T01:15:15;98205.09;;;11.44;41.86
75447;BME280;64024;55.820;37.574;2022-12-18T01:17:42;98188.56;;;11.42;41.64
75447;BME280;64024;55.820;37.574;2022-12-18T01:20:08;98200.25;;;11.41;41.90
75447;BME280;64024;55.820;37.574;2022-12-18T01:22:35;98181.88;;;11.39;41.51
75447;BME280;64024;55.820;37.574;2022-12-18T01:25:01;98192.75;;;11.38;41.79
75447;BME280;64024;55.820;37.574;2022-12-18T01:27:26;98194.63;;;11.37;41.64
75447;BME280;64024;55.820;37.574;2022-12-18T01:29:52;98194.84;;;11.36;41.83
75447;BME280;64024;55.820;37.574;2022-12-18T01:32:17;98189.50;;;11.36;41.78
75447;BME280;64024;55.820;37.574;2022-12-18T01:34:43;98199.59;;;11.34;41.96
75447;BME280;64024;55.820;37.574;2022-12-18T01:37:09;98180.41;;;11.32;41.59
75447;BME280;64024;55.820;37.574;2022-12-18T01:39:34;98187.34;;;11.33;41.72
75447;BME280;64024;55.820;37.574;2022-12-18T01:42:05;98190.22;;;11.31;41.67
75447;BME280;64024;55.820;37.574;2022-12-18T01:45:03;98180.97;;;11.34;41.81
75447;BME280;64024;55.820;37.574;2022-12-18T01:47:36;98184.34;;;11.29;41.81
75447;BME280;64024;55.820;37.574;2022-12-18T01:53:07;98185.88;;;11.25;41.38
75447;BME280;64024;55.820;37.574;2022-12-18T01:55:43;98176.50;;;11.23;41.46
75447;BME280;64024;55.820;37.574;2022-12-18T01:58:13;98178.63;;;11.20;41.83
75447;BME280;64024;55.820;37.574;2022-12-18T02:00:39;98184.66;;;11.16;41.54
75447;BME280;64024;55.820;37.574;2022-12-18T02:03:04;98177.13;;;11.13;42.01
75447;BME280;64024;55.820;37.574;2022-12-18T02:08:20;98193.56;;;11.10;41.39
75447;BME280;64024;55.820;37.574;2022-12-18T02:18:57;98202.38;;;10.99;41.91
75447;BME280;64024;55.820;37.574;2022-12-18T02:26:37;98206.44;;;10.89;42.07
75447;BME280;64024;55.820;37.574;2022-12-18T02:29:09;98209.34;;;10.88;41.83
75447;BME280;64024;55.820;37.574;2022-12-18T02:31:42;98205.56;;;10.84;41.69
75447;BME280;64024;55.820;37.574;2022-12-18T02:34:09;98203.34;;;10.81;41.59
75447;BME280;64024;55.820;37.574;2022-12-18T02:36:38;98195.84;;;10.78;41.86
75447;BME280;64024;55.820;37.574;2022-12-18T02:39:07;98182.00;;;10.76;42.23
75447;BME280;64024;55.820;37.574;2022-12-18T02:41:35;98195.75;;;10.73;41.91
75447;BME280;64024;55.820;37.574;2022-12-18T02:44:07;98201.88;;;10.73;41.95
75447;BME280;64024;55.820;37.574;2022-12-18T02:52:29;98200.97;;;10.67;42.25
75447;BME280;64024;55.820;37.574;2022-12-18T02:57:51;98197.41;;;10.62;41.96
75447;BME280;64024;55.820;37.574;2022-12-18T03:00:26;98194.97;;;10.60;41.98
75447;BME280;64024;55.820;37.574;2022-12-18T03:03:01;98213.78;;;10.59;42.36
75447;BME280;64024;55.820;37.574;2022-12-18T03:08:24;98194.59;;;10.57;42.33
75447;BME280;64024;55.820;37.574;2022-12-18T03:11:00;98190.94;;;10.58;42.18
75447;BME280;64024;55.820;37.574;2022-12-18T03:13:32;98177.66;;;10.58;42.27
75447;BME280;64024;55.820;37.574;2022-12-18T03:16:00;98181.31;;;10.57;43.12
75447;BME280;64024;55.820;37.574;2022-12-18T03:18:38;98190.09;;;10.57;43.82
75447;BME280;64024;55.820;37.574;2022-12-18T03:21:07;98176.81;;;10.57;43.75
75447;BME280;64024;55.820;37.574;2022-12-18T03:23:40;98171.50;;;10.57;43.65
75447;BME280;64024;55.820;37.574;2022-12-18T03:26:10;98189.28;;;10.57;44.16
75447;BME280;64024;55.820;37.574;2022-12-18T03:28:43;98181.31;;;10.57;44.08
75447;BME280;64024;55.820;37.574;2022-12-18T03:31:12;98186.09;;;10.55;43.58
75447;BME280;64024;55.820;37.574;2022-12-18T03:34:03;98179.97;;;10.54;44.10
75447;BME280;64024;55.820;37.574;2022-12-18T03:36:30;98188.16;;;10.53;44.16
75447;BME280;64024;55.820;37.574;2022-12-18T03:38:56;98193.72;;;10.51;43.74
75447;BME280;64024;55.820;37.574;2022-12-18T03:41:30;98200.06;;;10.50;43.70
75447;BME280;64024;55.820;37.574;2022-12-18T03:49:23;98220.97;;;10.47;43.90
75447;BME280;64024;55.820;37.574;2022-12-18T03:52:05;98203.97;;;10.48;43.83
75447;BME280;64024;55.820;37.574;2022-12-18T03:54:33;98192.78;;;10.45;43.76
75447;BME280;64024;55.820;37.574;2022-12-18T03:57:12;98190.34;;;10.44;43.79
75447;BME280;64024;55.820;37.574;2022-12-18T03:59:40;98180.78;;;10.43;43.79
75447;BME280;64024;55.820;37.574;2022-12-18T04:02:07;98182.88;;;10.41;43.59
75447;BME280;64024;55.820;37.574;2022-12-18T04:04:35;98204.56;;;10.38;43.67
75447;BME280;64024;55.820;37.574;2022-12-18T04:07:04;98200.31;;;10.37;44.02
75447;BME280;64024;55.820;37.574;2022-12-18T04:09:31;98188.53;;;10.33;43.45
75447;BME280;64024;55.820;37.574;2022-12-18T04:11:57;98176.28;;;10.32;43.63
75447;BME280;64024;55.820;37.574;2022-12-18T04:14:23;98184.72;;;10.29;44.00
75447;BME280;64024;55.820;37.574;2022-12-18T04:16:48;98200.06;;;10.27;43.52
75447;BME280;64024;55.820;37.574;2022-12-18T04:19:14;98194.19;;;10.25;43.56
75447;BME280;64024;55.820;37.574;2022-12-18T04:21:39;98213.78;;;10.24;43.36
75447;BME280;64024;55.820;37.574;2022-12-18T04:24:05;98197.28;;;10.21;43.42
75447;BME280;64024;55.820;37.574;2022-12-18T04:26:30;98201.78;;;10.21;43.81
75447;BME280;64024;55.820;37.574;2022-12-18T04:28:56;98224.28;;;10.18;43.44
75447;BME280;64024;55.820;37.574;2022-12-18T04:31:22;98226.38;;;10.16;43.77
75447;BME280;64024;55.820;37.574;2022-12-18T04:33:47;98249.44;;;10.16;43.32
75447;BME280;64024;55.820;37.574;2022-12-18T04:36:13;98248.06;;;10.13;43.31
75447;BME280;64024;55.820;37.574;2022-12-18T04:38:38;98257.06;;;10.12;43.23
75447;BME280;64024;55.820;37.574;2022-12-18T04:41:04;98265.03;;;10.12;43.63
75447;BME280;64024;55.820;37.574;2022-12-18T04:43:29;98271.34;;;10.11;43.89
75447;BME280;64024;55.820;37.574;2022-12-18T04:46:06;98258.09;;;10.11;43.53
75447;BME280;64024;55.820;37.574;2022-12-18T04:48:33;98240.34;;;10.12;43.69
75447;BME280;64024;55.820;37.574;2022-12-18T04:50:58;98260.75;;;10.11;44.10
75447;BME280;64024;55.820;37.574;2022-12-18T04:53:24;98280.16;;;10.12;44.21
75447;BME280;64024;55.820;37.574;2022-12-18T04:55:50;98288.34;;;10.10;44.29
75447;BME280;64024;55.820;37.574;2022-12-18T04:58:15;98280.38;;;10.10;43.70
75447;BME280;64024;55.820;37.574;2022-12-18T05:00:41;98284.06;;;10.09;43.52
75447;BME280;64024;55.820;37.574;2022-12-18T05:03:06;98272.66;;;10.09;44.10
75447;BME280;64024;55.820;37.574;2022-12-18T05:05:34;98289.63;;;10.08;43.53
75447;BME280;64024;55.820;37.574;2022-12-18T05:08:00;98269.19;;;10.08;44.36
75447;BME280;64024;55.820;37.574;2022-12-18T05:10:26;98261.22;;;10.08;43.95
75447;BME280;64024;55.820;37.574;2022-12-18T05:12:51;98262.84;;;10.09;44.22
75447;BME280;64024;55.820;37.574;2022-12-18T05:15:27;98273.69;;;10.08;43.92
75447;BME280;64024;55.820;37.574;2022-12-18T05:17:53;98253.47;;;10.07;43.82
75447;BME280;64024;55.820;37.574;2022-12-18T05:20:18;98276.78;;;10.05;44.26
75447;BME280;64024;55.820;37.574;2022-12-18T05:22:44;98263.16;;;10.01;43.99
75447;BME280;64024;55.820;37.574;2022-12-18T05:25:10;98261.63;;;9.93;44.10
75447;BME280;64024;55.820;37.574;2022-12-18T05:27:35;98279.50;;;9.86;44.13
75447;BME280;64024;55.820;37.574;2022-12-18T05:30:01;98287.22;;;9.76;43.55
75447;BME280;64024;55.820;37.574;2022-12-18T05:32:26;98280.63;;;9.67;43.74
75447;BME280;64024;55.820;37.574;2022-12-18T05:34:51;98309.50;;;9.57;44.12
75447;BME280;64024;55.820;37.574;2022-12-18T05:37:17;98311.66;;;9.48;44.24
75447;BME280;64024;55.820;37.574;2022-12-18T05:39:43;98305.06;;;9.39;44.09
75447;BME280;64024;55.820;37.574;2022-12-18T05:42:08;98307.19;;;9.30;43.83
75447;BME280;64024;55.820;37.574;2022-12-18T05:44:35;98333.78;;;9.24;44.40
75447;BME280;64024;55.820;37.574;2022-12-18T05:47:00;98309.19;;;9.16;44.58
75447;BME280;64024;55.820;37.574;2022-12-18T05:49:26;98326.78;;;9.11;44.50
75447;BME280;64024;55.820;37.574;2022-12-18T05:51:51;98322.38;;;9.05;43.76
75447;BME280;64024;55.820;37.574;2022-12-18T05:54:17;98330.63;;;8.96;43.57
75447;BME280;64024;55.820;37.574;2022-12-18T05:56:42;98343.69;;;8.91;44.25
75447;BME280;64024;55.820;37.574;2022-12-18T05:59:08;98357.84;;;8.85;44.29
75447;BME280;64024;55.820;37.574;2022-12-18T06:01:34;98360.34;;;8.80;44.36
75447;BME280;64024;55.820;37.574;2022-12-18T06:04:00;98363.63;;;8.76;43.72
75447;BME280;64024;55.820;37.574;2022-12-18T06:06:27;98352.84;;;8.70;43.77
75447;BME280;64024;55.820;37.574;2022-12-18T06:08:53;98358.00;;;8.65;44.19
75447;BME280;64024;55.820;37.574;2022-12-18T06:11:21;98386.97;;;8.60;44.06
75447;BME280;64024;55.820;37.574;2022-12-18T06:13:49;98364.34;;;8.64;43.67
75447;BME280;64024;55.820;37.574;2022-12-18T06:16:15;98391.47;;;8.60;43.49
75447;BME280;64024;55.820;37.574;2022-12-18T06:18:40;98371.94;;;8.54;43.63
75447;BME280;64024;55.820;37.574;2022-12-18T06:21:06;98369.13;;;8.49;43.73
75447;BME280;64024;55.820;37.574;2022-12-18T06:23:31;98372.00;;;8.48;44.31
75447;BME280;64024;55.820;37.574;2022-12-18T06:25:57;98387.28;;;8.45;43.71
75447;BME280;64024;55.820;37.574;2022-12-18T06:28:23;98379.00;;;8.42;43.29
75447;BME280;64024;55.820;37.574;2022-12-18T06:30:49;98389.19;;;8.38;43.81
75447;BME280;64024;55.820;37.574;2022-12-18T06:33:15;98391.19;;;8.36;44.02
75447;BME280;64024;55.820;37.574;2022-12-18T06:35:41;98386.94;;;8.35;43.90
75447;BME280;64024;55.820;37.574;2022-12-18T06:38:07;98391.44;;;8.35;43.74
75447;BME280;64024;55.820;37.574;2022-12-18T06:40:33;98405.69;;;8.34;43.47
75447;BME280;64024;55.820;37.574;2022-12-18T06:42:58;98390.00;;;8.32;43.79
75447;BME280;64024;55.820;37.574;2022-12-18T06:45:24;98412.81;;;8.33;43.70
75447;BME280;64024;55.820;37.574;2022-12-18T06:47:50;98413.03;;;8.32;43.47
75447;BME280;64024;55.820;37.574;2022-12-18T06:50:15;98433.41;;;8.31;43.84
75447;BME280;64024;55.820;37.574;2022-12-18T06:52:41;98447.44;;;8.32;43.78
75447;BME280;64024;55.820;37.574;2022-12-18T06:55:10;98446.84;;;8.30;43.70
75447;BME280;64024;55.820;37.574;2022-12-18T06:57:36;98446.00;;;8.29;43.45
75447;BME280;64024;55.820;37.574;2022-12-18T07:00:03;98462.13;;;8.28;43.89
75447;BME280;64024;55.820;37.574;2022-12-18T07:02:29;98458.66;;;8.27;43.52
75447;BME280;64024;55.820;37.574;2022-12-18T07:04:54;98442.16;;;8.25;43.52
75447;BME280;64024;55.820;37.574;2022-12-18T07:07:20;98471.09;;;8.27;43.13
75447;BME280;64024;55.820;37.574;2022-12-18T07:09:45;98458.88;;;8.26;43.11
75447;BME280;64024;55.820;37.574;2022-12-18T07:12:11;98474.16;;;8.23;43.30
75447;BME280;64024;55.820;37.574;2022-12-18T07:14:36;98472.72;;;8.28;43.28
75447;BME280;64024;55.820;37.574;2022-12-18T07:17:02;98464.13;;;8.39;43.72
75447;BME280;64024;55.820;37.574;2022-12-18T07:19:28;98468.13;;;8.55;45.14
75447;BME280;64024;55.820;37.574;2022-12-18T07:21:54;98460.66;;;8.70;45.12
75447;BME280;64024;55.820;37.574;2022-12-18T07:24:19;98457.91;;;8.83;45.12
75447;BME280;64024;55.820;37.574;2022-12-18T07:26:46;98472.06;;;8.95;45.15
75447;BME280;64024;55.820;37.574;2022-12-18T07:29:12;98457.09;;;9.08;45.46
75447;BME280;64024;55.820;37.574;2022-12-18T07:31:37;98497.19;;;9.18;45.29
75447;BME280;64024;55.820;37.574;2022-12-18T07:34:03;98494.84;;;9.28;45.34
75447;BME280;64024;55.820;37.574;2022-12-18T07:36:28;98513.75;;;9.38;46.12
75447;BME280;64024;55.820;37.574;2022-12-18T07:38:54;98515.88;;;9.48;45.27
75447;BME280;64024;55.820;37.574;2022-12-18T07:41:20;98506.84;;;9.56;46.24
75447;BME280;64024;55.820;37.574;2022-12-18T07:43:46;98509.19;;;9.64;46.04
75447;BME280;64024;55.820;37.574;2022-12-18T07:46:12;98488.50;;;9.73;45.72
75447;BME280;64024;55.820;37.574;2022-12-18T07:48:42;98528.25;;;9.79;45.72
75447;BME280;64024;55.820;37.574;2022-12-18T07:51:08;98513.03;;;9.86;45.59
75447;BME280;64024;55.820;37.574;2022-12-18T07:53:35;98516.44;;;9.93;45.69
75447;BME280;64024;55.820;37.574;2022-12-18T07:56:04;98502.88;;;10.02;45.15
75447;BME280;64024;55.820;37.574;2022-12-18T07:58:30;98508.09;;;10.08;45.00
75447;BME280;64024;55.820;37.574;2022-12-18T08:01:04;98492.09;;;10.15;45.00
75447;BME280;64024;55.820;37.574;2022-12-18T08:03:29;98502.03;;;10.19;45.08
75447;BME280;64024;55.820;37.574;2022-12-18T08:05:59;98514.63;;;10.24;44.91
75447;BME280;64024;55.820;37.574;2022-12-18T08:08:25;98504.19;;;10.29;44.52
75447;BME280;64024;55.820;37.574;2022-12-18T08:10:51;98496.38;;;10.34;45.08
75447;BME280;64024;55.820;37.574;2022-12-18T08:13:16;98500.19;;;10.38;45.04
75447;BME280;64024;55.820;37.574;2022-12-18T08:15:42;98505.88;;;10.42;44.71
75447;BME280;64024;55.820;37.574;2022-12-18T08:18:07;98508.28;;;10.43;44.74
75447;BME280;64024;55.820;37.574;2022-12-18T08:20:33;98519.72;;;10.44;44.66
75447;BME280;64024;55.820;37.574;2022-12-18T08:22:58;98542.38;;;10.47;44.89
75447;BME280;64024;55.820;37.574;2022-12-18T08:25:24;98548.50;;;10.47;44.28
75447;BME280;64024;55.820;37.574;2022-12-18T08:27:49;98543.19;;;10.47;44.25
75447;BME280;64024;55.820;37.574;2022-12-18T08:30:15;98550.13;;;10.48;44.30
75447;BME280;64024;55.820;37.574;2022-12-18T08:32:40;98555.44;;;10.48;43.77
75447;BME280;64024;55.820;37.574;2022-12-18T08:35:06;98556.25;;;10.49;44.34
75447;BME280;64024;55.820;37.574;2022-12-18T08:37:33;98562.59;;;10.48;43.59
75447;BME280;64024;55.820;37.574;2022-12-18T08:39:59;98559.72;;;10.49;43.65
75447;BME280;64024;55.820;37.574;2022-12-18T08:42:25;98559.72;;;10.49;43.66
75447;BME280;64024;55.820;37.574;2022-12-18T08:45:09;98561.34;;;10.50;43.85
75447;BME280;64024;55.820;37.574;2022-12-18T08:47:34;98579.72;;;10.52;43.30
75447;BME280;64024;55.820;37.574;2022-12-18T08:50:00;98570.69;;;10.53;43.24
75447;BME280;64024;55.820;37.574;2022-12-18T08:52:25;98572.56;;;10.52;43.32
75447;BME280;64024;55.820;37.574;2022-12-18T08:54:51;98572.56;;;10.52;43.44
75447;BME280;64024;55.820;37.574;2022-12-18T08:57:17;98556.84;;;10.51;43.38
75447;BME280;64024;55.820;37.574;2022-12-18T08:59:42;98560.06;;;10.53;43.29
75447;BME280;64024;55.820;37.574;2022-12-18T09:02:10;98572.56;;;10.52;43.30
75447;BME280;64024;55.820;37.574;2022-12-18T09:04:36;98565.19;;;10.54;43.64
75447;BME280;64024;55.820;37.574;2022-12-18T09:07:01;98577.44;;;10.55;43.53
75447;BME280;64024;55.820;37.574;2022-12-18T09:09:27;98578.00;;;10.57;43.62
75447;BME280;64024;55.820;37.574;2022-12-18T09:11:52;98585.53;;;10.60;43.43
75447;BME280;64024;55.820;37.574;2022-12-18T09:14:18;98581.03;;;10.61;42.86
75447;BME280;64024;55.820;37.574;2022-12-18T09:16:43;98584.28;;;10.63;43.38
75447;BME280;64024;55.820;37.574;2022-12-18T09:19:12;98586.25;;;10.67;42.93
75447;BME280;64024;55.820;37.574;2022-12-18T09:21:38;98596.66;;;10.69;42.99
75447;BME280;64024;55.820;37.574;2022-12-18T09:24:04;98598.06;;;10.72;42.75
75447;BME280;64024;55.820;37.574;2022-12-18T09:26:30;98602.34;;;10.73;43.27
75447;BME280;64024;55.820;37.574;2022-12-18T09:28:56;98608.25;;;10.75;43.18
75447;BME280;64024;55.820;37.574;2022-12-18T09:31:23;98608.25;;;10.75;42.82
75447;BME280;64024;55.820;37.574;2022-12-18T09:33:49;98617.53;;;10.84;42.95
75447;BME280;64024;55.820;37.574;2022-12-18T09:36:17;98620.63;;;10.81;42.58
75447;BME280;64024;55.820;37.574;2022-12-18T09:38:43;98629.66;;;10.80;43.05
75447;BME280;64024;55.820;37.574;2022-12-18T09:43:55;98635.16;;;10.78;42.49
75447;BME280;64024;55.820;37.574;2022-12-18T09:46:27;98646.84;;;10.77;42.62
75447;BME280;64024;55.820;37.574;2022-12-18T09:48:58;98645.22;;;10.76;43.02
75447;BME280;64024;55.820;37.574;2022-12-18T09:51:47;98651.94;;;10.79;42.78
75447;BME280;64024;55.820;37.574;2022-12-18T09:54:26;98654.63;;;10.79;42.88
75447;BME280;64024;55.820;37.574;2022-12-18T09:56:55;98654.63;;;10.79;42.77
75447;BME280;64024;55.820;37.574;2022-12-18T09:59:27;98659.94;;;10.79;43.28
75447;BME280;64024;55.820;37.574;2022-12-18T10:01:56;98652.91;;;10.84;43.20
75447;BME280;64024;55.820;37.574;2022-12-18T10:04:23;98663.47;;;11.03;43.31
75447;BME280;64024;55.820;37.574;2022-12-18T10:06:56;98658.88;;;11.28;43.03
75447;BME280;64024;55.820;37.574;2022-12-18T10:09:36;98670.03;;;11.60;43.18
75447;BME280;64024;55.820;37.574;2022-12-18T10:17:45;98668.13;;;12.61;42.31
75447;BME280;64024;55.820;37.574;2022-12-18T10:20:38;98676.72;;;12.92;41.77
75447;BME280;64024;55.820;37.574;2022-12-18T10:25:53;98674.47;;;13.41;41.01
75447;BME280;64024;55.820;37.574;2022-12-18T10:28:21;98677.47;;;13.61;40.96
75447;BME280;64024;55.820;37.574;2022-12-18T10:30:50;98672.97;;;13.79;40.76
75447;BME280;64024;55.820;37.574;2022-12-18T10:33:20;98688.97;;;13.96;40.82
75447;BME280;64024;55.820;37.574;2022-12-18T10:35:47;98670.75;;;14.09;40.44
75447;BME280;64024;55.820;37.574;2022-12-18T10:43:31;98650.88;;;14.56;39.50
75447;BME280;64024;55.820;37.574;2022-12-18T10:46:04;98660.94;;;14.71;39.58
75447;BME280;64024;55.820;37.574;2022-12-18T10:48:32;98668.56;;;14.84;39.28
75447;BME280;64024;55.820;37.574;2022-12-18T10:50:59;98689.84;;;14.96;39.53
75447;BME280;64024;55.820;37.574;2022-12-18T10:53:27;98678.69;;;15.04;39.30
75447;BME280;64024;55.820;37.574;2022-12-18T10:55:56;98687.31;;;15.06;38.92
75447;BME280;64024;55.820;37.574;2022-12-18T10:58:32;98689.53;;;14.92;38.92
75447;BME280;64024;55.820;37.574;2022-12-18T11:01:15;98703.16;;;14.69;38.95
75447;BME280;64024;55.820;37.574;2022-12-18T11:06:15;98712.06;;;14.18;39.56
75447;BME280;64024;55.820;37.574;2022-12-18T11:08:43;98730.66;;;13.97;39.58
75447;BME280;64024;55.820;37.574;2022-12-18T11:11:42;98731.31;;;13.87;39.39
75447;BME280;64024;55.820;37.574;2022-12-18T11:14:02;98731.34;;;13.58;39.87
75447;BME280;64024;55.820;37.574;2022-12-18T11:16:32;98731.44;;;13.35;39.67
75447;BME280;64024;55.820;37.574;2022-12-18T11:19:37;98742.28;;;13.16;39.78
75447;BME280;64024;55.820;37.574;2022-12-18T11:22:25;98733.41;;;12.99;39.84
75447;BME280;64024;55.820;37.574;2022-12-18T11:25:16;98731.22;;;12.84;40.02
75447;BME280;64024;55.820;37.574;2022-12-18T11:27:52;98740.75;;;12.68;40.35
75447;BME280;64024;55.820;37.574;2022-12-18T11:30:26;98736.25;;;12.57;40.43
75447;BME280;64024;55.820;37.574;2022-12-18T11:33:20;98749.34;;;12.47;40.85
75447;BME280;64024;55.820;37.574;2022-12-18T11:36:00;98750.75;;;12.38;41.06
75447;BME280;64024;55.820;37.574;2022-12-18T11:38:35;98749.47;;;12.29;41.19
75447;BME280;64024;55.820;37.574;2022-12-18T11:41:09;98759.66;;;12.20;41.35
75447;BME280;64024;55.820;37.574;2022-12-18T11:43:50;98753.63;;;12.13;41.54
75447;BME280;64024;55.820;37.574;2022-12-18T11:46:45;98755.81;;;12.04;41.94
75447;BME280;64024;55.820;37.574;2022-12-18T11:49:20;98763.22;;;12.02;41.80
75447;BME280;64024;55.820;37.574;2022-12-18T11:52:00;98762.78;;;12.17;41.37
75447;BME280;64024;55.820;37.574;2022-12-18T11:54:27;98767.78;;;12.37;41.44
75447;BME280;64024;55.820;37.574;2022-12-18T12:08:52;98796.09;;;13.37;40.04
75447;BME280;64024;55.820;37.574;2022-12-18T12:11:12;98802.88;;;13.56;39.47
75447;BME280;64024;55.820;37.574;2022-12-18T12:14:07;98809.09;;;13.74;39.35
75447;BME280;64024;55.820;37.574;2022-12-18T12:16:48;98829.34;;;13.86;39.04
75447;BME280;64024;55.820;37.574;2022-12-18T12:22:13;98816.09;;;14.08;38.56
75447;BME280;64024;55.820;37.574;2022-12-18T12:33:15;98852.03;;;14.63;37.99
75447;BME280;64024;55.820;37.574;2022-12-18T12:38:34;98871.25;;;14.94;38.25
75447;BME280;64024;55.820;37.574;2022-12-18T12:41:14;98877.53;;;15.04;38.18
75447;BME280;64024;55.820;37.574;2022-12-18T12:44:02;98872.56;;;15.13;38.12
75447;BME280;64024;55.820;37.574;2022-12-18T12:46:31;98881.00;;;15.22;38.25
75447;BME280;64024;55.820;37.574;2022-12-18T12:49:02;98878.41;;;15.27;38.13
75447;BME280;64024;55.820;37.574;2022-12-18T12:51:34;98890.03;;;15.15;37.82
75447;BME280;64024;55.820;37.574;2022-12-18T12:54:03;98895.88;;;14.96;38.55
75447;BME280;64024;55.820;37.574;2022-12-18T12:57:04;98897.09;;;14.71;38.46
75447;BME280;64024;55.820;37.574;2022-12-18T13:00:00;98904.13;;;14.43;38.97
75447;BME280;64024;55.820;37.574;2022-12-18T13:08:11;98921.00;;;13.75;39.12
75447;BME280;64024;55.820;37.574;2022-12-18T13:10:41;98932.06;;;13.55;39.34
75447;BME280;64024;55.820;37.574;2022-12-18T13:13:12;98945.31;;;13.38;39.46
75447;BME280;64024;55.820;37.574;2022-12-18T13:15:45;98953.44;;;13.20;39.45
75447;BME280;64024;55.820;37.574;2022-12-18T13:18:22;98946.91;;;13.04;40.08
75447;BME280;64024;55.820;37.574;2022-12-18T13:25:59;98939.53;;;12.64;40.49
75447;BME280;64024;55.820;37.574;2022-12-18T13:34:14;98965.66;;;12.32;41.26
75447;BME280;64024;55.820;37.574;2022-12-18T13:36:41;98985.63;;;12.23;41.45
75447;BME280;64024;55.820;37.574;2022-12-18T13:41:45;98990.75;;;12.06;41.49
75447;BME280;64024;55.820;37.574;2022-12-18T13:46:55;99004.38;;;11.98;42.02
75447;BME280;64024;55.820;37.574;2022-12-18T13:49:25;99014.53;;;11.89;42.08
75447;BME280;64024;55.820;37.574;2022-12-18T13:51:55;99023.59;;;11.82;42.90
75447;BME280;64024;55.820;37.574;2022-12-18T13:54:33;99013.41;;;11.79;43.17
75447;BME280;64024;55.820;37.574;2022-12-18T13:57:00;99037.22;;;11.74;43.15
75447;BME280;64024;55.820;37.574;2022-12-18T13:59:37;99020.06;;;11.69;43.54
75447;BME280;64024;55.820;37.574;2022-12-18T14:02:23;99037.75;;;11.82;43.85
75447;BME280;64024;55.820;37.574;2022-12-18T14:04:50;99051.88;;;12.01;43.26
75447;BME280;64024;55.820;37.574;2022-12-18T14:07:27;99045.91;;;12.24;42.69
75447;BME280;64024;55.820;37.574;2022-12-18T14:09:59;99034.31;;;12.49;42.16
75447;BME280;64024;55.820;37.574;2022-12-18T14:12:32;99042.41;;;12.72;42.32
75447;BME280;64024;55.820;37.574;2022-12-18T14:17:57;99071.53;;;13.15;42.12
75447;BME280;64024;55.820;37.574;2022-12-18T14:20:29;99064.25;;;13.34;41.84
75447;BME280;64024;55.820;37.574;2022-12-18T14:22:56;99070.78;;;13.50;41.57
75447;BME280;64024;55.820;37.574;2022-12-18T14:25:25;99068.25;;;13.67;41.44
75447;BME280;64024;55.820;37.574;2022-12-18T14:27:53;99078.22;;;13.83;41.76
75447;BME280;64024;55.820;37.574;2022-12-18T14:30:30;99069.50;;;14.00;41.63
75447;BME280;64024;55.820;37.574;2022-12-18T14:33:04;99082.16;;;14.16;41.89
75447;BME280;64024;55.820;37.574;2022-12-18T14:35:30;99080.63;;;14.32;41.86
75447;BME280;64024;55.820;37.574;2022-12-18T14:38:20;99092.66;;;14.46;41.64
75447;BME280;64024;55.820;37.574;2022-12-18T14:40:46;99092.66;;;14.58;41.30
75447;BME280;64024;55.820;37.574;2022-12-18T14:43:12;99115.28;;;14.67;41.31
75447;BME280;64024;55.820;37.574;2022-12-18T14:45:42;99120.06;;;14.77;40.71
75447;BME280;64024;55.820;37.574;2022-12-18T14:50:37;99125.78;;;14.97;40.42
75447;BME280;64024;55.820;37.574;2022-12-18T14:53:03;99137.94;;;15.05;40.35